sensor_id;sensor_type;location;lat;lon;timestamp;temperature;humidity
33825;DHT22;20127;48.962;8.342;2023-06-04T00:00:27;16.70;68.50
33825;DHT22;20127;48.962;8.342;2023-06-04T00:03:30;16.70;68.60
33825;DHT22;20127;48.962;8.342;2023-06-04T00:06:32;16.60;68.70
33825;DHT22;20127;48.962;8.342;2023-06-04T00:09:34;16.50;68.60
33825;DHT22;20127;48.962;8.342;2023-06-04T00:12:36;16.50;68.70
33825;DHT22;20127;48.962;8.342;2023-06-04T00:15:37;16.40;68.90
33825;DHT22;20127;48.962;8.342;2023-06-04T00:18:40;16.40;69.00
33825;DHT22;20127;48.962;8.342;2023-06-04T00:21:42;16.40;69.30
33825;DHT22;20127;48.962;8.342;2023-06-04T00:24:44;16.40;69.30
33825;DHT22;20127;48.962;8.342;2023-06-04T00:27:45;16.30;69.30
33825;DHT22;20127;48.962;8.342;2023-06-04T00:30:47;16.20;69.30
33825;DHT22;20127;48.962;8.342;2023-06-04T00:33:50;16.20;69.40
33825;DHT22;20127;48.962;8.342;2023-06-04T00:36:52;16.20;69.50
33825;DHT22;20127;48.962;8.342;2023-06-04T00:39:54;16.20;69.50
33825;DHT22;20127;48.962;8.342;2023-06-04T00:42:56;16.10;69.50
33825;DHT22;20127;48.962;8.342;2023-06-04T00:45:58;16.00;69.30
33825;DHT22;20127;48.962;8.342;2023-06-04T00:49:02;16.00;69.40
33825;DHT22;20127;48.962;8.342;2023-06-04T00:52:05;15.90;69.30
33825;DHT22;20127;48.962;8.342;2023-06-04T00:55:07;15.90;69.30
33825;DHT22;20127;48.962;8.342;2023-06-04T00:58:09;15.80;69.30
33825;DHT22;20127;48.962;8.342;2023-06-04T01:01:20;15.80;69.40
33825;DHT22;20127;48.962;8.342;2023-06-04T01:04:29;15.70;69.50
33825;DHT22;20127;48.962;8.342;2023-06-04T01:07:32;15.80;69.60
33825;DHT22;20127;48.962;8.342;2023-06-04T01:10:34;15.70;69.50
33825;DHT22;20127;48.962;8.342;2023-06-04T01:13:35;15.70;69.50
33825;DHT22;20127;48.962;8.342;2023-06-04T01:16:39;15.60;69.50
33825;DHT22;20127;48.962;8.342;2023-06-04T01:20:13;15.60;69.50
33825;DHT22;20127;48.962;8.342;2023-06-04T01:23:28;15.60;69.40
33825;DHT22;20127;48.962;8.342;2023-06-04T01:26:34;15.60;69.20
33825;DHT22;20127;48.962;8.342;2023-06-04T01:29:36;15.60;69.00
33825;DHT22;20127;48.962;8.342;2023-06-04T01:32:38;15.50;68.90
33825;DHT22;20127;48.962;8.342;2023-06-04T01:35:41;15.50;68.80
33825;DHT22;20127;48.962;8.342;2023-06-04T01:38:43;15.50;68.80
33825;DHT22;20127;48.962;8.342;2023-06-04T01:41:45;15.40;68.60
33825;DHT22;20127;48.962;8.342;2023-06-04T01:44:47;15.40;68.60
33825;DHT22;20127;48.962;8.342;2023-06-04T01:47:49;15.40;68.40
33825;DHT22;20127;48.962;8.342;2023-06-04T01:50:52;15.30;68.30
33825;DHT22;20127;48.962;8.342;2023-06-04T01:53:54;15.30;68.50
33825;DHT22;20127;48.962;8.342;2023-06-04T01:56:55;15.20;68.30
33825;DHT22;20127;48.962;8.342;2023-06-04T01:59:57;15.20;68.30
33825;DHT22;20127;48.962;8.342;2023-06-04T02:02:59;15.10;68.10
33825;DHT22;20127;48.962;8.342;2023-06-04T02:06:02;15.10;67.90
33825;DHT22;20127;48.962;8.342;2023-06-04T02:09:04;15.10;68.10
33825;DHT22;20127;48.962;8.342;2023-06-04T02:12:07;15.10;68.20
33825;DHT22;20127;48.962;8.342;2023-06-04T02:15:10;15.00;67.90
33825;DHT22;20127;48.962;8.342;2023-06-04T02:18:14;15.00;68.00
33825;DHT22;20127;48.962;8.342;2023-06-04T02:21:22;14.90;67.90
33825;DHT22;20127;48.962;8.342;2023-06-04T02:24:24;14.90;68.00
33825;DHT22;20127;48.962;8.342;2023-06-04T02:27:25;14.80;67.90
33825;DHT22;20127;48.962;8.342;2023-06-04T02:30:28;14.80;67.90
33825;DHT22;20127;48.962;8.342;2023-06-04T02:33:30;14.80;67.80
33825;DHT22;20127;48.962;8.342;2023-06-04T02:36:34;14.70;67.90
33825;DHT22;20127;48.962;8.342;2023-06-04T02:39:35;14.70;68.00
33825;DHT22;20127;48.962;8.342;2023-06-04T02:42:37;14.60;68.00
33825;DHT22;20127;48.962;8.342;2023-06-04T02:45:39;14.60;68.00
33825;DHT22;20127;48.962;8.342;2023-06-04T02:48:40;14.60;67.90
33825;DHT22;20127;48.962;8.342;2023-06-04T02:51:44;14.60;67.80
33825;DHT22;20127;48.962;8.342;2023-06-04T02:54:46;14.50;68.00
33825;DHT22;20127;48.962;8.342;2023-06-04T02:57:47;14.50;68.10
33825;DHT22;20127;48.962;8.342;2023-06-04T03:00:49;14.50;68.00
33825;DHT22;20127;48.962;8.342;2023-06-04T03:03:51;14.50;67.80
33825;DHT22;20127;48.962;8.342;2023-06-04T03:06:54;14.40;67.90
33825;DHT22;20127;48.962;8.342;2023-06-04T03:09:58;14.40;67.90
33825;DHT22;20127;48.962;8.342;2023-06-04T03:13:00;14.40;67.80
33825;DHT22;20127;48.962;8.342;2023-06-04T03:16:02;14.40;67.90
33825;DHT22;20127;48.962;8.342;2023-06-04T03:19:04;14.40;67.70
33825;DHT22;20127;48.962;8.342;2023-06-04T03:22:08;14.40;67.50
33825;DHT22;20127;48.962;8.342;2023-06-04T03:25:11;14.40;67.50
33825;DHT22;20127;48.962;8.342;2023-06-04T03:28:12;14.40;67.50
33825;DHT22;20127;48.962;8.342;2023-06-04T03:31:14;14.40;67.50
33825;DHT22;20127;48.962;8.342;2023-06-04T03:34:16;14.40;67.50
33825;DHT22;20127;48.962;8.342;2023-06-04T03:37:19;14.40;67.30
33825;DHT22;20127;48.962;8.342;2023-06-04T03:40:21;14.40;67.30
33825;DHT22;20127;48.962;8.342;2023-06-04T03:43:22;14.40;67.30
33825;DHT22;20127;48.962;8.342;2023-06-04T03:46:24;14.40;67.20
33825;DHT22;20127;48.962;8.342;2023-06-04T03:49:29;14.40;67.00
33825;DHT22;20127;48.962;8.342;2023-06-04T03:52:32;14.40;67.00
33825;DHT22;20127;48.962;8.342;2023-06-04T03:55:34;14.50;67.00
33825;DHT22;20127;48.962;8.342;2023-06-04T03:58:35;14.50;66.90
33825;DHT22;20127;48.962;8.342;2023-06-04T04:01:37;14.50;66.90
33825;DHT22;20127;48.962;8.342;2023-06-04T04:04:39;14.50;66.90
33825;DHT22;20127;48.962;8.342;2023-06-04T04:07:42;14.50;67.00
33825;DHT22;20127;48.962;8.342;2023-06-04T04:10:44;14.60;67.00
33825;DHT22;20127;48.962;8.342;2023-06-04T04:13:46;14.60;66.90
33825;DHT22;20127;48.962;8.342;2023-06-04T04:16:48;14.70;66.90
33825;DHT22;20127;48.962;8.342;2023-06-04T04:19:49;14.80;67.00
33825;DHT22;20127;48.962;8.342;2023-06-04T04:22:52;14.80;66.40
33825;DHT22;20127;48.962;8.342;2023-06-04T04:25:54;15.00;66.20
33825;DHT22;20127;48.962;8.342;2023-06-04T04:28:58;15.10;66.00
33825;DHT22;20127;48.962;8.342;2023-06-04T04:32:01;15.20;65.60
33825;DHT22;20127;48.962;8.342;2023-06-04T04:35:10;15.40;65.40
33825;DHT22;20127;48.962;8.342;2023-06-04T04:38:13;15.50;65.10
33825;DHT22;20127;48.962;8.342;2023-06-04T04:41:17;15.50;64.70
33825;DHT22;20127;48.962;8.342;2023-06-04T04:44:19;15.90;65.00
33825;DHT22;20127;48.962;8.342;2023-06-04T04:47:21;16.60;64.10
33825;DHT22;20127;48.962;8.342;2023-06-04T04:50:23;17.30;62.60
33825;DHT22;20127;48.962;8.342;2023-06-04T04:53:26;17.80;61.20
33825;DHT22;20127;48.962;8.342;2023-06-04T04:56:28;18.10;60.70
33825;DHT22;20127;48.962;8.342;2023-06-04T04:59:30;18.80;59.30
33825;DHT22;20127;48.962;8.342;2023-06-04T05:02:32;19.40;58.10
33825;DHT22;20127;48.962;8.342;2023-06-04T05:05:34;19.90;56.80
33825;DHT22;20127;48.962;8.342;2023-06-04T05:08:37;19.70;55.50
33825;DHT22;20127;48.962;8.342;2023-06-04T05:11:38;19.20;55.60
33825;DHT22;20127;48.962;8.342;2023-06-04T05:14:40;18.60;56.30
33825;DHT22;20127;48.962;8.342;2023-06-04T05:17:42;18.30;57.20
33825;DHT22;20127;48.962;8.342;2023-06-04T05:20:43;18.80;57.00
33825;DHT22;20127;48.962;8.342;2023-06-04T05:23:47;19.50;55.80
33825;DHT22;20127;48.962;8.342;2023-06-04T05:26:48;20.10;54.80
33825;DHT22;20127;48.962;8.342;2023-06-04T05:29:50;20.60;54.30
33825;DHT22;20127;48.962;8.342;2023-06-04T05:32:52;21.20;53.30
33825;DHT22;20127;48.962;8.342;2023-06-04T05:35:54;21.40;52.30
33825;DHT22;20127;48.962;8.342;2023-06-04T05:38:59;21.60;51.60
33825;DHT22;20127;48.962;8.342;2023-06-04T05:42:01;21.80;51.10
33825;DHT22;20127;48.962;8.342;2023-06-04T05:45:03;22.00;51.00
33825;DHT22;20127;48.962;8.342;2023-06-04T05:48:05;22.30;50.60
33825;DHT22;20127;48.962;8.342;2023-06-04T05:51:07;22.80;49.40
33825;DHT22;20127;48.962;8.342;2023-06-04T05:54:10;22.80;49.20
33825;DHT22;20127;48.962;8.342;2023-06-04T05:57:12;23.20;48.60
33825;DHT22;20127;48.962;8.342;2023-06-04T06:00:14;23.50;48.10
33825;DHT22;20127;48.962;8.342;2023-06-04T06:03:16;23.90;46.90
33825;DHT22;20127;48.962;8.342;2023-06-04T06:06:18;24.00;46.50
33825;DHT22;20127;48.962;8.342;2023-06-04T06:09:22;23.90;46.00
33825;DHT22;20127;48.962;8.342;2023-06-04T06:12:24;23.70;46.20
33825;DHT22;20127;48.962;8.342;2023-06-04T06:15:25;23.80;46.10
33825;DHT22;20127;48.962;8.342;2023-06-04T06:18:27;23.80;46.50
33825;DHT22;20127;48.962;8.342;2023-06-04T06:21:29;24.30;46.30
33825;DHT22;20127;48.962;8.342;2023-06-04T06:24:32;24.70;44.90
33825;DHT22;20127;48.962;8.342;2023-06-04T06:27:34;24.50;44.60
33825;DHT22;20127;48.962;8.342;2023-06-04T06:30:36;24.30;44.60
33825;DHT22;20127;48.962;8.342;2023-06-04T06:33:38;24.10;45.00
33825;DHT22;20127;48.962;8.342;2023-06-04T06:36:42;24.00;44.70
33825;DHT22;20127;48.962;8.342;2023-06-04T06:39:45;23.70;45.00
33825;DHT22;20127;48.962;8.342;2023-06-04T06:42:48;23.60;44.90
33825;DHT22;20127;48.962;8.342;2023-06-04T06:45:51;23.50;45.40
33825;DHT22;20127;48.962;8.342;2023-06-04T06:48:52;23.00;45.60
33825;DHT22;20127;48.962;8.342;2023-06-04T06:51:54;22.20;46.60
33825;DHT22;20127;48.962;8.342;2023-06-04T06:54:57;21.40;48.10
33825;DHT22;20127;48.962;8.342;2023-06-04T06:57:59;20.90;49.40
33825;DHT22;20127;48.962;8.342;2023-06-04T07:01:01;20.60;50.00
33825;DHT22;20127;48.962;8.342;2023-06-04T07:04:03;20.30;50.70
33825;DHT22;20127;48.962;8.342;2023-06-04T07:07:04;20.10;51.20
33825;DHT22;20127;48.962;8.342;2023-06-04T07:10:09;19.90;51.60
33825;DHT22;20127;48.962;8.342;2023-06-04T07:13:11;20.10;51.80
33825;DHT22;20127;48.962;8.342;2023-06-04T07:16:13;20.20;52.10
33825;DHT22;20127;48.962;8.342;2023-06-04T07:19:15;20.50;51.90
33825;DHT22;20127;48.962;8.342;2023-06-04T07:22:16;20.50;52.10
33825;DHT22;20127;48.962;8.342;2023-06-04T07:25:20;20.60;52.20
33825;DHT22;20127;48.962;8.342;2023-06-04T07:28:24;20.80;52.00
33825;DHT22;20127;48.962;8.342;2023-06-04T07:31:25;21.50;51.80
33825;DHT22;20127;48.962;8.342;2023-06-04T07:34:27;22.60;50.80
33825;DHT22;20127;48.962;8.342;2023-06-04T07:37:29;23.80;49.70
33825;DHT22;20127;48.962;8.342;2023-06-04T07:40:32;24.70;47.60
33825;DHT22;20127;48.962;8.342;2023-06-04T07:43:34;25.20;46.80
33825;DHT22;20127;48.962;8.342;2023-06-04T07:46:36;25.90;46.40
33825;DHT22;20127;48.962;8.342;2023-06-04T07:49:37;26.30;45.20
33825;DHT22;20127;48.962;8.342;2023-06-04T07:52:39;26.80;44.70
33825;DHT22;20127;48.962;8.342;2023-06-04T07:55:42;27.00;44.10
33825;DHT22;20127;48.962;8.342;2023-06-04T07:58:44;27.10;43.50
33825;DHT22;20127;48.962;8.342;2023-06-04T08:01:47;27.00;43.40
33825;DHT22;20127;48.962;8.342;2023-06-04T08:04:49;26.90;43.30
33825;DHT22;20127;48.962;8.342;2023-06-04T08:07:51;26.70;43.00
33825;DHT22;20127;48.962;8.342;2023-06-04T08:10:55;26.40;43.60
33825;DHT22;20127;48.962;8.342;2023-06-04T08:13:56;26.70;44.10
33825;DHT22;20127;48.962;8.342;2023-06-04T08:16:58;27.00;43.30
33825;DHT22;20127;48.962;8.342;2023-06-04T08:20:00;27.00;43.00
33825;DHT22;20127;48.962;8.342;2023-06-04T08:23:01;27.20;43.00
33825;DHT22;20127;48.962;8.342;2023-06-04T08:26:06;27.30;42.80
33825;DHT22;20127;48.962;8.342;2023-06-04T08:29:07;27.40;42.30
33825;DHT22;20127;48.962;8.342;2023-06-04T08:32:09;27.20;42.20
33825;DHT22;20127;48.962;8.342;2023-06-04T08:35:11;27.30;42.40
33825;DHT22;20127;48.962;8.342;2023-06-04T08:38:13;27.60;42.40
33825;DHT22;20127;48.962;8.342;2023-06-04T08:41:20;27.40;42.00
33825;DHT22;20127;48.962;8.342;2023-06-04T08:44:22;26.90;42.40
33825;DHT22;20127;48.962;8.342;2023-06-04T08:47:24;26.90;42.40
33825;DHT22;20127;48.962;8.342;2023-06-04T08:50:26;26.80;42.90
33825;DHT22;20127;48.962;8.342;2023-06-04T08:53:30;26.80;43.20
33825;DHT22;20127;48.962;8.342;2023-06-04T08:56:33;26.80;43.50
33825;DHT22;20127;48.962;8.342;2023-06-04T08:59:35;26.90;43.70
33825;DHT22;20127;48.962;8.342;2023-06-04T09:02:38;26.80;43.40
33825;DHT22;20127;48.962;8.342;2023-06-04T09:05:40;26.60;43.60
33825;DHT22;20127;48.962;8.342;2023-06-04T09:08:46;26.70;43.90
33825;DHT22;20127;48.962;8.342;2023-06-04T09:11:51;27.20;44.00
33825;DHT22;20127;48.962;8.342;2023-06-04T09:14:53;27.50;43.30
33825;DHT22;20127;48.962;8.342;2023-06-04T09:17:55;27.50;42.70
33825;DHT22;20127;48.962;8.342;2023-06-04T09:21:03;26.90;43.20
33825;DHT22;20127;48.962;8.342;2023-06-04T09:24:06;26.70;43.80
33825;DHT22;20127;48.962;8.342;2023-06-04T09:27:12;26.60;43.70
33825;DHT22;20127;48.962;8.342;2023-06-04T09:30:14;26.60;44.10
33825;DHT22;20127;48.962;8.342;2023-06-04T09:33:15;26.80;44.50
33825;DHT22;20127;48.962;8.342;2023-06-04T09:36:17;27.30;44.00
33825;DHT22;20127;48.962;8.342;2023-06-04T09:39:19;27.40;43.30
33825;DHT22;20127;48.962;8.342;2023-06-04T09:42:23;27.40;43.30
33825;DHT22;20127;48.962;8.342;2023-06-04T09:45:28;27.50;43.40
33825;DHT22;20127;48.962;8.342;2023-06-04T09:48:30;27.60;42.80
33825;DHT22;20127;48.962;8.342;2023-06-04T09:51:32;27.40;42.60
33825;DHT22;20127;48.962;8.342;2023-06-04T09:54:35;27.20;42.90
33825;DHT22;20127;48.962;8.342;2023-06-04T09:57:39;27.30;42.60
33825;DHT22;20127;48.962;8.342;2023-06-04T10:00:41;27.20;42.40
33825;DHT22;20127;48.962;8.342;2023-06-04T10:03:47;27.20;42.60
33825;DHT22;20127;48.962;8.342;2023-06-04T10:06:52;27.00;42.60
33825;DHT22;20127;48.962;8.342;2023-06-04T10:09:54;27.10;42.60
33825;DHT22;20127;48.962;8.342;2023-06-04T10:13:02;27.10;42.20
33825;DHT22;20127;48.962;8.342;2023-06-04T10:16:07;27.20;42.40
33825;DHT22;20127;48.962;8.342;2023-06-04T10:19:09;27.20;42.30
33825;DHT22;20127;48.962;8.342;2023-06-04T10:22:12;27.40;42.20
33825;DHT22;20127;48.962;8.342;2023-06-04T10:25:14;27.30;42.40
33825;DHT22;20127;48.962;8.342;2023-06-04T10:28:19;27.30;42.00
33825;DHT22;20127;48.962;8.342;2023-06-04T10:31:21;27.50;41.60
33825;DHT22;20127;48.962;8.342;2023-06-04T10:34:23;27.40;41.80
33825;DHT22;20127;48.962;8.342;2023-06-04T10:37:26;27.70;41.70
33825;DHT22;20127;48.962;8.342;2023-06-04T10:40:31;28.10;41.60
33825;DHT22;20127;48.962;8.342;2023-06-04T10:43:35;28.60;41.10
33825;DHT22;20127;48.962;8.342;2023-06-04T10:46:40;28.90;40.50
33825;DHT22;20127;48.962;8.342;2023-06-04T10:49:43;29.10;40.20
33825;DHT22;20127;48.962;8.342;2023-06-04T10:52:51;29.20;40.20
33825;DHT22;20127;48.962;8.342;2023-06-04T10:55:53;29.50;40.10
33825;DHT22;20127;48.962;8.342;2023-06-04T10:58:56;29.80;39.60
33825;DHT22;20127;48.962;8.342;2023-06-04T11:02:05;30.10;39.30
33825;DHT22;20127;48.962;8.342;2023-06-04T11:05:07;30.30;38.80
33825;DHT22;20127;48.962;8.342;2023-06-04T11:08:11;30.30;38.40
33825;DHT22;20127;48.962;8.342;2023-06-04T11:11:14;29.80;38.90
33825;DHT22;20127;48.962;8.342;2023-06-04T11:14:17;29.70;38.90
33825;DHT22;20127;48.962;8.342;2023-06-04T11:17:19;29.80;38.40
33825;DHT22;20127;48.962;8.342;2023-06-04T11:20:22;29.70;38.70
33825;DHT22;20127;48.962;8.342;2023-06-04T11:23:24;30.00;38.60
33825;DHT22;20127;48.962;8.342;2023-06-04T11:26:30;30.30;38.30
33825;DHT22;20127;48.962;8.342;2023-06-04T11:29:34;30.40;38.10
33825;DHT22;20127;48.962;8.342;2023-06-04T11:32:35;30.50;37.70
33825;DHT22;20127;48.962;8.342;2023-06-04T11:35:41;30.40;37.10
33825;DHT22;20127;48.962;8.342;2023-06-04T11:38:54;29.90;37.10
33825;DHT22;20127;48.962;8.342;2023-06-04T11:41:56;30.00;37.00
33825;DHT22;20127;48.962;8.342;2023-06-04T11:45:00;29.80;36.70
33825;DHT22;20127;48.962;8.342;2023-06-04T11:48:05;29.40;36.60
33825;DHT22;20127;48.962;8.342;2023-06-04T11:51:07;29.40;36.80
33825;DHT22;20127;48.962;8.342;2023-06-04T11:54:10;29.40;37.10
33825;DHT22;20127;48.962;8.342;2023-06-04T11:57:12;29.60;37.30
33825;DHT22;20127;48.962;8.342;2023-06-04T12:00:16;29.80;36.50
33825;DHT22;20127;48.962;8.342;2023-06-04T12:03:19;30.00;36.70
33825;DHT22;20127;48.962;8.342;2023-06-04T12:06:21;30.30;36.10
33825;DHT22;20127;48.962;8.342;2023-06-04T12:09:24;30.30;35.80
33825;DHT22;20127;48.962;8.342;2023-06-04T12:12:27;30.20;35.30
33825;DHT22;20127;48.962;8.342;2023-06-04T12:15:30;30.30;35.30
33825;DHT22;20127;48.962;8.342;2023-06-04T12:18:32;30.40;35.40
33825;DHT22;20127;48.962;8.342;2023-06-04T12:21:36;30.50;36.00
33825;DHT22;20127;48.962;8.342;2023-06-04T12:24:46;30.70;35.20
33825;DHT22;20127;48.962;8.342;2023-06-04T12:27:48;30.70;35.50
33825;DHT22;20127;48.962;8.342;2023-06-04T12:30:51;30.80;34.90
33825;DHT22;20127;48.962;8.342;2023-06-04T12:33:53;30.70;34.80
33825;DHT22;20127;48.962;8.342;2023-06-04T12:36:55;30.60;34.90
33825;DHT22;20127;48.962;8.342;2023-06-04T12:39:56;30.40;34.50
33825;DHT22;20127;48.962;8.342;2023-06-04T12:42:58;30.10;34.70
33825;DHT22;20127;48.962;8.342;2023-06-04T12:46:01;30.10;35.20
33825;DHT22;20127;48.962;8.342;2023-06-04T12:49:03;30.20;35.10
33825;DHT22;20127;48.962;8.342;2023-06-04T12:52:06;30.40;35.00
33825;DHT22;20127;48.962;8.342;2023-06-04T12:55:08;30.50;34.60
33825;DHT22;20127;48.962;8.342;2023-06-04T12:58:10;30.30;34.60
33825;DHT22;20127;48.962;8.342;2023-06-04T13:01:14;30.30;34.90
33825;DHT22;20127;48.962;8.342;2023-06-04T13:04:16;30.70;34.40
33825;DHT22;20127;48.962;8.342;2023-06-04T13:07:17;30.60;34.30
33825;DHT22;20127;48.962;8.342;2023-06-04T13:10:19;30.30;34.30
33825;DHT22;20127;48.962;8.342;2023-06-04T13:13:21;30.00;34.90
33825;DHT22;20127;48.962;8.342;2023-06-04T13:16:24;30.10;34.80
33825;DHT22;20127;48.962;8.342;2023-06-04T13:19:26;30.10;34.80
33825;DHT22;20127;48.962;8.342;2023-06-04T13:22:28;30.40;35.10
33825;DHT22;20127;48.962;8.342;2023-06-04T13:25:30;30.60;34.80
33825;DHT22;20127;48.962;8.342;2023-06-04T13:28:33;30.50;34.30
33825;DHT22;20127;48.962;8.342;2023-06-04T13:31:36;30.10;34.60
33825;DHT22;20127;48.962;8.342;2023-06-04T13:34:39;30.10;35.10
33825;DHT22;20127;48.962;8.342;2023-06-04T13:37:41;30.30;35.00
33825;DHT22;20127;48.962;8.342;2023-06-04T13:40:42;30.30;35.20
33825;DHT22;20127;48.962;8.342;2023-06-04T13:43:45;30.60;35.30
33825;DHT22;20127;48.962;8.342;2023-06-04T13:46:48;31.00;35.50
33825;DHT22;20127;48.962;8.342;2023-06-04T13:49:49;31.30;35.20
33825;DHT22;20127;48.962;8.342;2023-06-04T13:52:51;30.90;35.00
33825;DHT22;20127;48.962;8.342;2023-06-04T13:55:53;30.40;35.00
33825;DHT22;20127;48.962;8.342;2023-06-04T13:58:58;30.00;35.40
33825;DHT22;20127;48.962;8.342;2023-06-04T14:02:01;30.00;35.70
33825;DHT22;20127;48.962;8.342;2023-06-04T14:05:04;30.00;35.50
33825;DHT22;20127;48.962;8.342;2023-06-04T14:08:06;29.90;35.60
33825;DHT22;20127;48.962;8.342;2023-06-04T14:11:07;30.10;35.30
33825;DHT22;20127;48.962;8.342;2023-06-04T14:14:09;30.00;35.20
33825;DHT22;20127;48.962;8.342;2023-06-04T14:17:12;30.00;35.40
33825;DHT22;20127;48.962;8.342;2023-06-04T14:20:14;30.20;35.30
33825;DHT22;20127;48.962;8.342;2023-06-04T14:23:16;30.30;35.20
33825;DHT22;20127;48.962;8.342;2023-06-04T14:26:19;30.30;35.00
33825;DHT22;20127;48.962;8.342;2023-06-04T14:29:20;30.50;34.90
33825;DHT22;20127;48.962;8.342;2023-06-04T14:32:23;30.70;34.80
33825;DHT22;20127;48.962;8.342;2023-06-04T14:35:25;30.80;34.90
33825;DHT22;20127;48.962;8.342;2023-06-04T14:38:27;30.60;34.50
33825;DHT22;20127;48.962;8.342;2023-06-04T14:41:28;30.30;33.90
33825;DHT22;20127;48.962;8.342;2023-06-04T14:44:30;29.90;34.30
33825;DHT22;20127;48.962;8.342;2023-06-04T14:47:33;30.00;34.10
33825;DHT22;20127;48.962;8.342;2023-06-04T14:50:35;30.00;33.30
33825;DHT22;20127;48.962;8.342;2023-06-04T14:53:37;30.00;33.10
33825;DHT22;20127;48.962;8.342;2023-06-04T14:56:39;30.10;32.90
33825;DHT22;20127;48.962;8.342;2023-06-04T14:59:41;30.10;32.90
33825;DHT22;20127;48.962;8.342;2023-06-04T15:02:45;29.90;33.00
33825;DHT22;20127;48.962;8.342;2023-06-04T15:05:46;29.70;33.30
33825;DHT22;20127;48.962;8.342;2023-06-04T15:08:48;29.40;32.90
33825;DHT22;20127;48.962;8.342;2023-06-04T15:11:50;29.30;32.60
33825;DHT22;20127;48.962;8.342;2023-06-04T15:14:52;29.20;32.70
33825;DHT22;20127;48.962;8.342;2023-06-04T15:17:55;29.20;32.60
33825;DHT22;20127;48.962;8.342;2023-06-04T15:20:56;29.20;32.10
33825;DHT22;20127;48.962;8.342;2023-06-04T15:23:58;29.30;32.10
33825;DHT22;20127;48.962;8.342;2023-06-04T15:27:00;29.40;32.50
33825;DHT22;20127;48.962;8.342;2023-06-04T15:30:02;29.30;32.60
33825;DHT22;20127;48.962;8.342;2023-06-04T15:33:05;29.20;32.70
33825;DHT22;20127;48.962;8.342;2023-06-04T15:36:07;29.10;32.70
33825;DHT22;20127;48.962;8.342;2023-06-04T15:39:08;29.20;32.70
33825;DHT22;20127;48.962;8.342;2023-06-04T15:42:10;29.20;32.60
33825;DHT22;20127;48.962;8.342;2023-06-04T15:45:13;29.40;32.50
33825;DHT22;20127;48.962;8.342;2023-06-04T15:48:16;29.40;32.70
33825;DHT22;20127;48.962;8.342;2023-06-04T15:51:18;29.40;31.90
33825;DHT22;20127;48.962;8.342;2023-06-04T15:54:20;29.20;32.20
33825;DHT22;20127;48.962;8.342;2023-06-04T15:57:22;28.90;32.30
33825;DHT22;20127;48.962;8.342;2023-06-04T16:00:24;28.80;32.60
33825;DHT22;20127;48.962;8.342;2023-06-04T16:03:27;28.80;32.60
33825;DHT22;20127;48.962;8.342;2023-06-04T16:06:28;28.80;32.70
33825;DHT22;20127;48.962;8.342;2023-06-04T16:09:30;28.70;32.60
33825;DHT22;20127;48.962;8.342;2023-06-04T16:12:32;28.60;32.60
33825;DHT22;20127;48.962;8.342;2023-06-04T16:15:34;28.50;32.90
33825;DHT22;20127;48.962;8.342;2023-06-04T16:18:39;28.50;33.00
33825;DHT22;20127;48.962;8.342;2023-06-04T16:21:41;28.60;33.40
33825;DHT22;20127;48.962;8.342;2023-06-04T16:24:42;28.60;33.40
33825;DHT22;20127;48.962;8.342;2023-06-04T16:27:45;28.40;33.40
33825;DHT22;20127;48.962;8.342;2023-06-04T16:30:46;28.40;33.40
33825;DHT22;20127;48.962;8.342;2023-06-04T16:33:49;28.50;33.60
33825;DHT22;20127;48.962;8.342;2023-06-04T16:36:51;28.50;33.50
33825;DHT22;20127;48.962;8.342;2023-06-04T16:39:53;28.40;33.60
33825;DHT22;20127;48.962;8.342;2023-06-04T16:42:54;28.10;33.20
33825;DHT22;20127;48.962;8.342;2023-06-04T16:45:56;28.10;33.20
33825;DHT22;20127;48.962;8.342;2023-06-04T16:48:59;28.20;33.40
33825;DHT22;20127;48.962;8.342;2023-06-04T16:52:01;28.00;33.50
33825;DHT22;20127;48.962;8.342;2023-06-04T16:55:05;27.90;33.60
33825;DHT22;20127;48.962;8.342;2023-06-04T16:58:08;27.90;33.80
33825;DHT22;20127;48.962;8.342;2023-06-04T17:01:10;28.00;33.60
33825;DHT22;20127;48.962;8.342;2023-06-04T17:04:13;28.00;33.70
33825;DHT22;20127;48.962;8.342;2023-06-04T17:07:15;27.80;33.60
33825;DHT22;20127;48.962;8.342;2023-06-04T17:10:17;27.30;33.70
33825;DHT22;20127;48.962;8.342;2023-06-04T17:13:18;27.00;34.10
33825;DHT22;20127;48.962;8.342;2023-06-04T17:16:21;26.70;34.10
33825;DHT22;20127;48.962;8.342;2023-06-04T17:19:26;26.40;34.00
33825;DHT22;20127;48.962;8.342;2023-06-04T17:22:28;26.20;33.90
33825;DHT22;20127;48.962;8.342;2023-06-04T17:25:30;26.00;34.20
33825;DHT22;20127;48.962;8.342;2023-06-04T17:28:31;25.80;34.20
33825;DHT22;20127;48.962;8.342;2023-06-04T17:31:33;25.70;34.30
33825;DHT22;20127;48.962;8.342;2023-06-04T17:34:36;25.50;34.30
33825;DHT22;20127;48.962;8.342;2023-06-04T17:37:38;25.30;34.20
33825;DHT22;20127;48.962;8.342;2023-06-04T17:40:40;25.20;34.20
33825;DHT22;20127;48.962;8.342;2023-06-04T17:43:41;25.00;34.20
33825;DHT22;20127;48.962;8.342;2023-06-04T17:46:43;24.90;34.50
33825;DHT22;20127;48.962;8.342;2023-06-04T17:49:46;24.80;34.70
33825;DHT22;20127;48.962;8.342;2023-06-04T17:52:48;24.80;35.00
33825;DHT22;20127;48.962;8.342;2023-06-04T17:55:51;24.70;35.10
33825;DHT22;20127;48.962;8.342;2023-06-04T17:58:54;24.60;35.20
33825;DHT22;20127;48.962;8.342;2023-06-04T18:01:55;24.50;35.50
33825;DHT22;20127;48.962;8.342;2023-06-04T18:04:58;24.50;35.70
33825;DHT22;20127;48.962;8.342;2023-06-04T18:08:00;24.40;36.00
33825;DHT22;20127;48.962;8.342;2023-06-04T18:11:02;24.30;36.10
33825;DHT22;20127;48.962;8.342;2023-06-04T18:14:05;24.20;36.20
33825;DHT22;20127;48.962;8.342;2023-06-04T18:17:06;24.10;36.10
33825;DHT22;20127;48.962;8.342;2023-06-04T18:20:10;24.00;36.30
33825;DHT22;20127;48.962;8.342;2023-06-04T18:23:12;24.00;36.60
33825;DHT22;20127;48.962;8.342;2023-06-04T18:26:14;23.90;36.70
33825;DHT22;20127;48.962;8.342;2023-06-04T18:29:16;23.80;36.80
33825;DHT22;20127;48.962;8.342;2023-06-04T18:32:18;23.70;36.90
33825;DHT22;20127;48.962;8.342;2023-06-04T18:35:21;23.60;37.00
33825;DHT22;20127;48.962;8.342;2023-06-04T18:38:22;23.50;37.30
33825;DHT22;20127;48.962;8.342;2023-06-04T18:41:24;23.40;37.50
33825;DHT22;20127;48.962;8.342;2023-06-04T18:44:26;23.30;37.70
33825;DHT22;20127;48.962;8.342;2023-06-04T18:47:27;23.20;37.90
33825;DHT22;20127;48.962;8.342;2023-06-04T18:50:30;23.10;38.00
33825;DHT22;20127;48.962;8.342;2023-06-04T18:53:32;23.00;38.30
33825;DHT22;20127;48.962;8.342;2023-06-04T18:56:34;23.00;38.50
33825;DHT22;20127;48.962;8.342;2023-06-04T18:59:36;22.90;38.70
33825;DHT22;20127;48.962;8.342;2023-06-04T19:02:38;22.80;39.00
33825;DHT22;20127;48.962;8.342;2023-06-04T19:05:41;22.70;39.40
33825;DHT22;20127;48.962;8.342;2023-06-04T19:08:43;22.60;39.80
33825;DHT22;20127;48.962;8.342;2023-06-04T19:11:45;22.50;40.30